sensor_id;sensor_type;location;lat;lon;timestamp;pressure;altitude;pressure_sealevel;temperature;humidity
37848;BME280;23688;33.130;-117.188;2023-05-21T00:01:35;99712.03;;;16.51;100.00
37848;BME280;23688;33.130;-117.188;2023-05-21T00:04:02;99710.31;;;16.51;100.00
37848;BME280;23688;33.130;-117.188;2023-05-21T00:06:28;99710.22;;;16.46;100.00
37848;BME280;23688;33.130;-117.188;2023-05-21T00:08:54;99725.19;;;16.13;100.00
37848;BME280;23688;33.130;-117.188;2023-05-21T00:11:21;99731.09;;;16.04;100.00
37848;BME280;23688;33.130;-117.188;2023-05-21T00:13:48;99735.09;;;16.26;100.00
37848;BME280;23688;33.130;-117.188;2023-05-21T00:16:15;99735.53;;;16.46;100.00
37848;BME280;23688;33.130;-117.188;2023-05-21T00:18:41;99731.91;;;16.39;100.00
37848;BME280;23688;33.130;-117.188;2023-05-21T00:21:07;99728.50;;;16.45;100.00
37848;BME280;23688;33.130;-117.188;2023-05-21T00:23:34;99718.75;;;16.38;100.00
37848;BME280;23688;33.130;-117.188;2023-05-21T00:26:02;99731.53;;;16.22;100.00
37848;BME280;23688;33.130;-117.188;2023-05-21T00:28:28;99731.16;;;16.05;100.00
37848;BME280;23688;33.130;-117.188;2023-05-21T00:30:55;99742.25;;;15.95;100.00
37848;BME280;23688;33.130;-117.188;2023-05-21T00:33:21;99724.16;;;16.04;100.00
37848;BME280;23688;33.130;-117.188;2023-05-21T00:35:51;99735.19;;;16.31;100.00
37848;BME280;23688;33.130;-117.188;2023-05-21T00:38:17;99729.41;;;16.45;100.00
37848;BME280;23688;33.130;-117.188;2023-05-21T00:40:44;99734.41;;;16.35;100.00
37848;BME280;23688;33.130;-117.188;2023-05-21T00:43:10;99748.94;;;16.20;100.00
37848;BME280;23688;33.130;-117.188;2023-05-21T00:45:36;99726.31;;;15.86;100.00
37848;BME280;23688;33.130;-117.188;2023-05-21T00:48:03;99740.06;;;15.77;100.00
37848;BME280;23688;33.130;-117.188;2023-05-21T00:50:31;99753.78;;;15.69;100.00
37848;BME280;23688;33.130;-117.188;2023-05-21T00:52:57;99739.59;;;15.94;100.00
37848;BME280;23688;33.130;-117.188;2023-05-21T00:55:24;99729.47;;;15.71;100.00
37848;BME280;23688;33.130;-117.188;2023-05-21T00:57:51;99734.25;;;15.54;100.00
37848;BME280;23688;33.130;-117.188;2023-05-21T01:00:20;99743.03;;;15.56;100.00
37848;BME280;23688;33.130;-117.188;2023-05-21T01:02:48;99731.38;;;15.44;100.00
37848;BME280;23688;33.130;-117.188;2023-05-21T01:05:15;99727.03;;;15.46;100.00
37848;BME280;23688;33.130;-117.188;2023-05-21T01:07:41;99730.66;;;15.51;100.00
37848;BME280;23688;33.130;-117.188;2023-05-21T01:10:09;99723.81;;;15.91;100.00
37848;BME280;23688;33.130;-117.188;2023-05-21T01:12:38;99731.28;;;15.74;100.00
37848;BME280;23688;33.130;-117.188;2023-05-21T01:15:06;99731.19;;;15.71;100.00
37848;BME280;23688;33.130;-117.188;2023-05-21T01:17:34;99730.03;;;15.96;100.00
37848;BME280;23688;33.130;-117.188;2023-05-21T01:20:01;99723.25;;;15.69;100.00
37848;BME280;23688;33.130;-117.188;2023-05-21T01:22:41;99721.50;;;15.68;100.00
37848;BME280;23688;33.130;-117.188;2023-05-21T01:25:09;99735.94;;;15.87;100.00
37848;BME280;23688;33.130;-117.188;2023-05-21T01:27:35;99727.50;;;15.64;100.00
37848;BME280;23688;33.130;-117.188;2023-05-21T01:30:02;99728.81;;;15.47;100.00
37848;BME280;23688;33.130;-117.188;2023-05-21T01:35:35;99728.50;;;15.69;100.00
37848;BME280;23688;33.130;-117.188;2023-05-21T01:38:21;99722.78;;;15.51;100.00
37848;BME280;23688;33.130;-117.188;2023-05-21T01:40:59;99733.69;;;15.33;100.00
37848;BME280;23688;33.130;-117.188;2023-05-21T01:43:35;99731.75;;;15.60;100.00
37848;BME280;23688;33.130;-117.188;2023-05-21T01:46:04;99732.38;;;15.50;100.00
37848;BME280;23688;33.130;-117.188;2023-05-21T01:48:33;99726.91;;;15.39;100.00
37848;BME280;23688;33.130;-117.188;2023-05-21T01:51:05;99729.44;;;15.36;100.00
37848;BME280;23688;33.130;-117.188;2023-05-21T01:53:31;99721.53;;;15.35;100.00
37848;BME280;23688;33.130;-117.188;2023-05-21T01:55:59;99733.75;;;15.34;100.00
37848;BME280;23688;33.130;-117.188;2023-05-21T01:58:25;99730.38;;;15.40;100.00
37848;BME280;23688;33.130;-117.188;2023-05-21T02:00:51;99726.84;;;15.71;100.00
37848;BME280;23688;33.130;-117.188;2023-05-21T02:03:19;99713.28;;;15.88;100.00
37848;BME280;23688;33.130;-117.188;2023-05-21T02:05:47;99718.53;;;15.89;100.00
37848;BME280;23688;33.130;-117.188;2023-05-21T02:08:13;99723.19;;;16.01;100.00
37848;BME280;23688;33.130;-117.188;2023-05-21T02:10:39;99711.78;;;15.99;100.00
37848;BME280;23688;33.130;-117.188;2023-05-21T02:13:06;99722.47;;;16.08;100.00
37848;BME280;23688;33.130;-117.188;2023-05-21T02:15:32;99722.25;;;15.99;100.00
37848;BME280;23688;33.130;-117.188;2023-05-21T02:18:03;99731.66;;;15.91;100.00
37848;BME280;23688;33.130;-117.188;2023-05-21T02:20:30;99736.94;;;15.92;100.00
37848;BME280;23688;33.130;-117.188;2023-05-21T02:22:56;99734.06;;;15.81;100.00
37848;BME280;23688;33.130;-117.188;2023-05-21T02:25:23;99732.84;;;15.69;100.00
37848;BME280;23688;33.130;-117.188;2023-05-21T02:27:49;99743.22;;;15.64;100.00
37848;BME280;23688;33.130;-117.188;2023-05-21T02:30:18;99741.22;;;15.55;100.00
37848;BME280;23688;33.130;-117.188;2023-05-21T02:32:45;99735.69;;;15.76;100.00
37848;BME280;23688;33.130;-117.188;2023-05-21T02:35:13;99740.28;;;15.87;100.00
37848;BME280;23688;33.130;-117.188;2023-05-21T02:37:40;99740.34;;;15.88;100.00
37848;BME280;23688;33.130;-117.188;2023-05-21T02:40:07;99734.59;;;15.68;100.00
37848;BME280;23688;33.130;-117.188;2023-05-21T02:42:36;99733.19;;;15.82;100.00
37848;BME280;23688;33.130;-117.188;2023-05-21T02:45:10;99730.38;;;15.73;100.00
37848;BME280;23688;33.130;-117.188;2023-05-21T02:47:37;99749.19;;;15.93;100.00
37848;BME280;23688;33.130;-117.188;2023-05-21T02:50:06;99742.44;;;15.68;100.00
37848;BME280;23688;33.130;-117.188;2023-05-21T02:52:32;99735.53;;;15.70;100.00
37848;BME280;23688;33.130;-117.188;2023-05-21T02:54:59;99754.53;;;15.98;100.00
37848;BME280;23688;33.130;-117.188;2023-05-21T02:57:25;99740.66;;;16.02;100.00
37848;BME280;23688;33.130;-117.188;2023-05-21T02:59:52;99739.47;;;15.88;100.00
37848;BME280;23688;33.130;-117.188;2023-05-21T03:02:18;99735.50;;;16.07;100.00
37848;BME280;23688;33.130;-117.188;2023-05-21T03:04:44;99740.88;;;16.11;100.00
37848;BME280;23688;33.130;-117.188;2023-05-21T03:07:14;99730.22;;;16.03;100.00
37848;BME280;23688;33.130;-117.188;2023-05-21T03:09:42;99742.53;;;16.08;100.00
37848;BME280;23688;33.130;-117.188;2023-05-21T03:12:09;99738.34;;;16.14;100.00
37848;BME280;23688;33.130;-117.188;2023-05-21T03:14:36;99722.56;;;16.13;100.00
37848;BME280;23688;33.130;-117.188;2023-05-21T03:17:03;99724.94;;;16.02;100.00
37848;BME280;23688;33.130;-117.188;2023-05-21T03:19:31;99735.78;;;16.19;100.00
37848;BME280;23688;33.130;-117.188;2023-05-21T03:22:01;99712.34;;;15.86;100.00
37848;BME280;23688;33.130;-117.188;2023-05-21T03:24:28;99731.44;;;15.81;100.00
37848;BME280;23688;33.130;-117.188;2023-05-21T03:26:58;99736.56;;;16.13;100.00
37848;BME280;23688;33.130;-117.188;2023-05-21T03:29:28;99725.44;;;15.86;100.00
37848;BME280;23688;33.130;-117.188;2023-05-21T03:31:54;99729.28;;;16.00;100.00
37848;BME280;23688;33.130;-117.188;2023-05-21T03:34:21;99736.22;;;15.99;100.00
37848;BME280;23688;33.130;-117.188;2023-05-21T03:36:48;99738.88;;;16.01;100.00
37848;BME280;23688;33.130;-117.188;2023-05-21T03:39:15;99739.88;;;16.06;100.00
37848;BME280;23688;33.130;-117.188;2023-05-21T03:41:42;99745.19;;;16.09;100.00
37848;BME280;23688;33.130;-117.188;2023-05-21T03:44:08;99748.38;;;15.96;100.00
37848;BME280;23688;33.130;-117.188;2023-05-21T03:46:34;99745.22;;;15.74;100.00
37848;BME280;23688;33.130;-117.188;2023-05-21T03:49:00;99742.59;;;15.73;100.00
37848;BME280;23688;33.130;-117.188;2023-05-21T03:51:27;99746.16;;;15.76;100.00
37848;BME280;23688;33.130;-117.188;2023-05-21T03:53:56;99743.53;;;15.76;100.00
37848;BME280;23688;33.130;-117.188;2023-05-21T03:56:22;99735.47;;;15.69;100.00
37848;BME280;23688;33.130;-117.188;2023-05-21T03:58:48;99739.84;;;15.68;100.00
37848;BME280;23688;33.130;-117.188;2023-05-21T04:01:15;99733.59;;;15.63;100.00
37848;BME280;23688;33.130;-117.188;2023-05-21T04:03:42;99738.44;;;15.48;100.00
37848;BME280;23688;33.130;-117.188;2023-05-21T04:06:08;99746.97;;;15.40;100.00
37848;BME280;23688;33.130;-117.188;2023-05-21T04:08:35;99758.66;;;15.53;100.00
37848;BME280;23688;33.130;-117.188;2023-05-21T04:11:02;99744.53;;;15.47;100.00
37848;BME280;23688;33.130;-117.188;2023-05-21T04:13:29;99771.50;;;15.46;100.00
37848;BME280;23688;33.130;-117.188;2023-05-21T04:15:55;99775.50;;;15.31;100.00
37848;BME280;23688;33.130;-117.188;2023-05-21T04:18:21;99782.38;;;15.28;100.00
37848;BME280;23688;33.130;-117.188;2023-05-21T04:20:50;99778.91;;;15.29;100.00
37848;BME280;23688;33.130;-117.188;2023-05-21T04:23:16;99784.75;;;15.18;100.00
37848;BME280;23688;33.130;-117.188;2023-05-21T04:25:42;99791.03;;;15.25;100.00
37848;BME280;23688;33.130;-117.188;2023-05-21T04:28:09;99780.50;;;15.22;100.00
37848;BME280;23688;33.130;-117.188;2023-05-21T04:30:35;99778.81;;;15.24;100.00
37848;BME280;23688;33.130;-117.188;2023-05-21T04:33:02;99791.13;;;15.28;100.00
37848;BME280;23688;33.130;-117.188;2023-05-21T04:35:31;99793.47;;;15.19;100.00
37848;BME280;23688;33.130;-117.188;2023-05-21T04:37:58;99793.06;;;15.35;100.00
37848;BME280;23688;33.130;-117.188;2023-05-21T04:40:24;99787.34;;;15.17;100.00
37848;BME280;23688;33.130;-117.188;2023-05-21T04:42:52;99795.41;;;15.26;100.00
37848;BME280;23688;33.130;-117.188;2023-05-21T04:45:19;99792.44;;;15.44;100.00
37848;BME280;23688;33.130;-117.188;2023-05-21T04:47:46;99798.06;;;15.59;100.00
37848;BME280;23688;33.130;-117.188;2023-05-21T04:50:12;99791.94;;;15.59;100.00
37848;BME280;23688;33.130;-117.188;2023-05-21T04:52:39;99793.94;;;15.69;100.00
37848;BME280;23688;33.130;-117.188;2023-05-21T04:55:09;99787.25;;;15.79;100.00
37848;BME280;23688;33.130;-117.188;2023-05-21T04:57:36;99787.19;;;15.77;100.00
37848;BME280;23688;33.130;-117.188;2023-05-21T05:00:03;99792.41;;;15.77;100.00
37848;BME280;23688;33.130;-117.188;2023-05-21T05:02:30;99781.25;;;15.84;100.00
37848;BME280;23688;33.130;-117.188;2023-05-21T05:04:56;99792.53;;;15.82;100.00
37848;BME280;23688;33.130;-117.188;2023-05-21T05:07:24;99779.25;;;15.74;100.00
37848;BME280;23688;33.130;-117.188;2023-05-21T05:09:50;99773.63;;;15.94;100.00
37848;BME280;23688;33.130;-117.188;2023-05-21T05:12:17;99764.97;;;15.96;100.00
37848;BME280;23688;33.130;-117.188;2023-05-21T05:14:43;99754.81;;;15.74;100.00
37848;BME280;23688;33.130;-117.188;2023-05-21T05:17:09;99752.38;;;15.81;100.00
37848;BME280;23688;33.130;-117.188;2023-05-21T05:19:39;99753.38;;;15.87;100.00
37848;BME280;23688;33.130;-117.188;2023-05-21T05:22:06;99768.72;;;15.71;100.00
37848;BME280;23688;33.130;-117.188;2023-05-21T05:24:32;99775.69;;;15.71;100.00
37848;BME280;23688;33.130;-117.188;2023-05-21T05:26:58;99766.19;;;15.74;100.00
37848;BME280;23688;33.130;-117.188;2023-05-21T05:29:24;99774.50;;;15.94;100.00
37848;BME280;23688;33.130;-117.188;2023-05-21T05:31:51;99777.00;;;15.88;100.00
37848;BME280;23688;33.130;-117.188;2023-05-21T05:34:18;99770.88;;;15.88;100.00
37848;BME280;23688;33.130;-117.188;2023-05-21T05:36:44;99761.75;;;15.72;100.00
37848;BME280;23688;33.130;-117.188;2023-05-21T05:39:11;99777.75;;;15.84;100.00
37848;BME280;23688;33.130;-117.188;2023-05-21T05:41:37;99763.91;;;15.88;100.00
37848;BME280;23688;33.130;-117.188;2023-05-21T05:44:06;99772.41;;;15.79;100.00
37848;BME280;23688;33.130;-117.188;2023-05-21T05:46:32;99771.19;;;15.67;100.00
37848;BME280;23688;33.130;-117.188;2023-05-21T05:48:59;99764.59;;;15.48;100.00
37848;BME280;23688;33.130;-117.188;2023-05-21T05:51:25;99762.41;;;15.31;100.00
37848;BME280;23688;33.130;-117.188;2023-05-21T05:53:51;99760.50;;;15.24;100.00
37848;BME280;23688;33.130;-117.188;2023-05-21T05:56:18;99779.03;;;15.33;100.00
37848;BME280;23688;33.130;-117.188;2023-05-21T05:58:44;99782.38;;;15.28;100.00
37848;BME280;23688;33.130;-117.188;2023-05-21T06:01:10;99789.06;;;15.50;100.00
37848;BME280;23688;33.130;-117.188;2023-05-21T06:03:38;99784.00;;;15.56;100.00
37848;BME280;23688;33.130;-117.188;2023-05-21T06:06:04;99786.53;;;15.53;100.00
37848;BME280;23688;33.130;-117.188;2023-05-21T06:08:30;99779.91;;;15.66;100.00
37848;BME280;23688;33.130;-117.188;2023-05-21T06:10:59;99778.63;;;15.83;100.00
37848;BME280;23688;33.130;-117.188;2023-05-21T06:13:26;99762.00;;;15.82;100.00
37848;BME280;23688;33.130;-117.188;2023-05-21T06:15:52;99773.88;;;16.03;100.00
37848;BME280;23688;33.130;-117.188;2023-05-21T06:18:19;99764.19;;;16.00;100.00
37848;BME280;23688;33.130;-117.188;2023-05-21T06:20:45;99772.41;;;16.16;100.00
37848;BME280;23688;33.130;-117.188;2023-05-21T06:23:11;99773.16;;;16.10;100.00
37848;BME280;23688;33.130;-117.188;2023-05-21T06:25:38;99775.06;;;16.17;100.00
37848;BME280;23688;33.130;-117.188;2023-05-21T06:28:05;99751.38;;;16.13;100.00
37848;BME280;23688;33.130;-117.188;2023-05-21T06:30:32;99755.94;;;16.21;100.00
37848;BME280;23688;33.130;-117.188;2023-05-21T06:32:58;99754.25;;;16.23;100.00
37848;BME280;23688;33.130;-117.188;2023-05-21T06:35:24;99739.22;;;16.15;100.00
37848;BME280;23688;33.130;-117.188;2023-05-21T06:37:51;99739.31;;;16.19;100.00
37848;BME280;23688;33.130;-117.188;2023-05-21T06:40:17;99747.47;;;16.32;100.00
37848;BME280;23688;33.130;-117.188;2023-05-21T06:42:44;99743.75;;;16.23;100.00
37848;BME280;23688;33.130;-117.188;2023-05-21T06:45:10;99737.69;;;16.24;100.00
37848;BME280;23688;33.130;-117.188;2023-05-21T06:47:37;99739.50;;;16.29;100.00
37848;BME280;23688;33.130;-117.188;2023-05-21T06:50:04;99739.69;;;16.36;100.00
37848;BME280;23688;33.130;-117.188;2023-05-21T06:52:30;99748.44;;;16.37;100.00
37848;BME280;23688;33.130;-117.188;2023-05-21T06:54:57;99742.38;;;16.39;100.00
37848;BME280;23688;33.130;-117.188;2023-05-21T06:57:23;99725.78;;;16.39;100.00
37848;BME280;23688;33.130;-117.188;2023-05-21T06:59:50;99721.28;;;16.33;100.00
37848;BME280;23688;33.130;-117.188;2023-05-21T07:02:16;99738.63;;;16.28;100.00
37848;BME280;23688;33.130;-117.188;2023-05-21T07:04:42;99740.38;;;16.27;100.00
37848;BME280;23688;33.130;-117.188;2023-05-21T07:07:08;99738.56;;;16.25;100.00
37848;BME280;23688;33.130;-117.188;2023-05-21T07:09:35;99730.59;;;16.20;100.00
37848;BME280;23688;33.130;-117.188;2023-05-21T07:12:01;99732.56;;;15.91;100.00
37848;BME280;23688;33.130;-117.188;2023-05-21T07:14:27;99730.63;;;15.84;100.00
37848;BME280;23688;33.130;-117.188;2023-05-21T07:16:53;99710.31;;;15.74;100.00
37848;BME280;23688;33.130;-117.188;2023-05-21T07:19:20;99721.91;;;15.83;100.00
37848;BME280;23688;33.130;-117.188;2023-05-21T07:21:46;99718.94;;;15.70;100.00
37848;BME280;23688;33.130;-117.188;2023-05-21T07:24:13;99713.81;;;15.74;100.00
37848;BME280;23688;33.130;-117.188;2023-05-21T07:26:40;99711.88;;;15.67;100.00
37848;BME280;23688;33.130;-117.188;2023-05-21T07:29:07;99715.19;;;15.60;100.00
37848;BME280;23688;33.130;-117.188;2023-05-21T07:31:33;99717.31;;;15.75;100.00
37848;BME280;23688;33.130;-117.188;2023-05-21T07:33:59;99712.34;;;15.51;100.00
37848;BME280;23688;33.130;-117.188;2023-05-21T07:36:26;99699.72;;;15.34;100.00
37848;BME280;23688;33.130;-117.188;2023-05-21T07:38:52;99709.16;;;15.28;100.00
37848;BME280;23688;33.130;-117.188;2023-05-21T07:41:18;99718.66;;;15.24;100.00
37848;BME280;23688;33.130;-117.188;2023-05-21T07:43:45;99713.88;;;15.43;100.00
37848;BME280;23688;33.130;-117.188;2023-05-21T07:46:11;99703.97;;;15.29;100.00
37848;BME280;23688;33.130;-117.188;2023-05-21T07:48:37;99686.28;;;15.20;100.00
37848;BME280;23688;33.130;-117.188;2023-05-21T07:51:04;99700.31;;;15.23;100.00
37848;BME280;23688;33.130;-117.188;2023-05-21T07:53:30;99679.44;;;15.24;100.00
37848;BME280;23688;33.130;-117.188;2023-05-21T07:55:59;99690.28;;;15.41;100.00
37848;BME280;23688;33.130;-117.188;2023-05-21T07:58:25;99689.88;;;15.24;100.00
37848;BME280;23688;33.130;-117.188;2023-05-21T08:00:51;99694.91;;;15.16;100.00
37848;BME280;23688;33.130;-117.188;2023-05-21T08:03:18;99700.72;;;15.05;100.00
37848;BME280;23688;33.130;-117.188;2023-05-21T08:05:46;99697.16;;;15.03;100.00
37848;BME280;23688;33.130;-117.188;2023-05-21T08:08:18;99701.59;;;15.05;100.00
37848;BME280;23688;33.130;-117.188;2023-05-21T08:10:46;99696.50;;;15.11;100.00
37848;BME280;23688;33.130;-117.188;2023-05-21T08:13:16;99706.59;;;15.31;100.00
37848;BME280;23688;33.130;-117.188;2023-05-21T08:15:43;99703.22;;;15.35;100.00
37848;BME280;23688;33.130;-117.188;2023-05-21T08:18:09;99705.09;;;15.39;100.00
37848;BME280;23688;33.130;-117.188;2023-05-21T08:20:36;99684.78;;;15.30;100.00
37848;BME280;23688;33.130;-117.188;2023-05-21T08:23:03;99697.81;;;15.29;100.00
37848;BME280;23688;33.130;-117.188;2023-05-21T08:25:29;99699.00;;;15.40;100.00
37848;BME280;23688;33.130;-117.188;2023-05-21T08:27:56;99696.38;;;15.40;100.00
37848;BME280;23688;33.130;-117.188;2023-05-21T08:30:22;99705.28;;;15.47;100.00
37848;BME280;23688;33.130;-117.188;2023-05-21T08:32:48;99691.63;;;15.60;100.00
37848;BME280;23688;33.130;-117.188;2023-05-21T08:35:15;99695.97;;;15.59;100.00
37848;BME280;23688;33.130;-117.188;2023-05-21T08:37:41;99694.06;;;15.52;100.00
37848;BME280;23688;33.130;-117.188;2023-05-21T08:40:09;99693.88;;;15.45;100.00
37848;BME280;23688;33.130;-117.188;2023-05-21T08:42:42;99698.47;;;15.53;100.00
37848;BME280;23688;33.130;-117.188;2023-05-21T08:45:14;99693.00;;;15.44;100.00
37848;BME280;23688;33.130;-117.188;2023-05-21T08:47:44;99680.53;;;15.34;100.00
37848;BME280;23688;33.130;-117.188;2023-05-21T08:50:15;99674.41;;;15.33;100.00
37848;BME280;23688;33.130;-117.188;2023-05-21T08:52:45;99668.06;;;15.24;100.00
37848;BME280;23688;33.130;-117.188;2023-05-21T08:55:11;99685.28;;;15.15;100.00
37848;BME280;23688;33.130;-117.188;2023-05-21T08:57:42;99680.44;;;15.29;100.00
37848;BME280;23688;33.130;-117.188;2023-05-21T09:00:10;99677.13;;;15.36;100.00
37848;BME280;23688;33.130;-117.188;2023-05-21T09:02:37;99682.44;;;15.41;100.00
37848;BME280;23688;33.130;-117.188;2023-05-21T09:05:06;99664.91;;;15.37;100.00
37848;BME280;23688;33.130;-117.188;2023-05-21T09:07:41;99667.34;;;15.29;100.00
37848;BME280;23688;33.130;-117.188;2023-05-21T09:10:12;99671.94;;;15.39;100.00
37848;BME280;23688;33.130;-117.188;2023-05-21T09:12:39;99681.78;;;15.50;100.00
37848;BME280;23688;33.130;-117.188;2023-05-21T09:15:06;99683.75;;;15.58;100.00
37848;BME280;23688;33.130;-117.188;2023-05-21T09:17:32;99686.72;;;15.72;100.00
37848;BME280;23688;33.130;-117.188;2023-05-21T09:20:12;99677.88;;;15.69;100.00
37848;BME280;23688;33.130;-117.188;2023-05-21T09:22:47;99678.00;;;15.72;100.00
37848;BME280;23688;33.130;-117.188;2023-05-21T09:25:21;99682.59;;;15.82;100.00
37848;BME280;23688;33.130;-117.188;2023-05-21T09:27:48;99671.06;;;15.74;100.00
37848;BME280;23688;33.130;-117.188;2023-05-21T09:30:15;99660.38;;;15.66;100.00
37848;BME280;23688;33.130;-117.188;2023-05-21T09:32:44;99662.00;;;15.61;100.00
37848;BME280;23688;33.130;-117.188;2023-05-21T09:35:14;99669.63;;;15.52;100.00
37848;BME280;23688;33.130;-117.188;2023-05-21T09:37:46;99664.13;;;15.41;100.00
37848;BME280;23688;33.130;-117.188;2023-05-21T09:40:17;99661.72;;;15.49;100.00
37848;BME280;23688;33.130;-117.188;2023-05-21T09:42:54;99659.47;;;15.64;100.00
37848;BME280;23688;33.130;-117.188;2023-05-21T09:45:24;99645.44;;;15.62;100.00
37848;BME280;23688;33.130;-117.188;2023-05-21T09:47:53;99653.69;;;15.77;100.00
37848;BME280;23688;33.130;-117.188;2023-05-21T09:50:22;99657.16;;;15.76;100.00
37848;BME280;23688;33.130;-117.188;2023-05-21T09:52:49;99644.75;;;15.69;100.00
37848;BME280;23688;33.130;-117.188;2023-05-21T09:55:21;99649.19;;;15.72;100.00
37848;BME280;23688;33.130;-117.188;2023-05-21T09:57:48;99630.22;;;15.46;100.00
37848;BME280;23688;33.130;-117.188;2023-05-21T10:00:26;99653.88;;;15.49;100.00
37848;BME280;23688;33.130;-117.188;2023-05-21T10:03:12;99648.06;;;15.62;100.00
37848;BME280;23688;33.130;-117.188;2023-05-21T10:05:41;99651.00;;;15.74;100.00
37848;BME280;23688;33.130;-117.188;2023-05-21T10:08:08;99645.00;;;15.78;100.00
37848;BME280;23688;33.130;-117.188;2023-05-21T10:10:37;99643.19;;;15.76;100.00
37848;BME280;23688;33.130;-117.188;2023-05-21T10:13:05;99654.88;;;15.90;100.00
37848;BME280;23688;33.130;-117.188;2023-05-21T10:15:52;99639.97;;;15.88;100.00
37848;BME280;23688;33.130;-117.188;2023-05-21T10:18:21;99642.59;;;15.88;100.00
37848;BME280;23688;33.130;-117.188;2023-05-21T10:20:48;99644.75;;;15.69;100.00
37848;BME280;23688;33.130;-117.188;2023-05-21T10:23:16;99648.38;;;15.73;100.00
37848;BME280;23688;33.130;-117.188;2023-05-21T10:25:44;99643.22;;;15.77;100.00
37848;BME280;23688;33.130;-117.188;2023-05-21T10:28:14;99638.19;;;15.87;100.00
37848;BME280;23688;33.130;-117.188;2023-05-21T10:30:41;99640.03;;;15.91;100.00
37848;BME280;23688;33.130;-117.188;2023-05-21T10:33:08;99646.09;;;15.90;100.00
37848;BME280;23688;33.130;-117.188;2023-05-21T10:35:37;99631.19;;;15.86;100.00
37848;BME280;23688;33.130;-117.188;2023-05-21T10:38:07;99647.84;;;15.89;100.00
37848;BME280;23688;33.130;-117.188;2023-05-21T10:40:34;99645.31;;;15.94;100.00
37848;BME280;23688;33.130;-117.188;2023-05-21T10:56:38;99635.66;;;15.91;100.00
37848;BME280;23688;33.130;-117.188;2023-05-21T11:02:12;99632.13;;;15.88;100.00
37848;BME280;23688;33.130;-117.188;2023-05-21T11:04:40;99631.34;;;15.93;100.00
37848;BME280;23688;33.130;-117.188;2023-05-21T11:07:11;99621.66;;;15.88;100.00
37848;BME280;23688;33.130;-117.188;2023-05-21T11:09:39;99627.88;;;15.94;100.00
37848;BME280;23688;33.130;-117.188;2023-05-21T11:12:06;99627.88;;;15.93;100.00
37848;BME280;23688;33.130;-117.188;2023-05-21T11:14:40;99627.88;;;15.93;100.00
37848;BME280;23688;33.130;-117.188;2023-05-21T11:19:35;99630.31;;;15.85;100.00
37848;BME280;23688;33.130;-117.188;2023-05-21T11:24:44;99616.31;;;15.83;100.00
37848;BME280;23688;33.130;-117.188;2023-05-21T11:27:11;99623.34;;;15.87;100.00
37848;BME280;23688;33.130;-117.188;2023-05-21T11:29:40;99624.97;;;15.80;100.00
37848;BME280;23688;33.130;-117.188;2023-05-21T11:32:08;99616.31;;;15.83;100.00
37848;BME280;23688;33.130;-117.188;2023-05-21T11:34:43;99612.03;;;15.88;100.00
37848;BME280;23688;33.130;-117.188;2023-05-21T11:39:46;99614.41;;;15.76;100.00
37848;BME280;23688;33.130;-117.188;2023-05-21T11:42:38;99597.56;;;15.66;100.00
37848;BME280;23688;33.130;-117.188;2023-05-21T11:45:07;99616.72;;;15.65;100.00
37848;BME280;23688;33.130;-117.188;2023-05-21T11:47:33;99612.50;;;15.70;100.00
37848;BME280;23688;33.130;-117.188;2023-05-21T11:50:01;99612.56;;;15.72;100.00
37848;BME280;23688;33.130;-117.188;2023-05-21T11:52:30;99614.28;;;15.71;100.00
37848;BME280;23688;33.130;-117.188;2023-05-21T11:54:57;99600.84;;;15.57;100.00
37848;BME280;23688;33.130;-117.188;2023-05-21T11:57:28;99597.94;;;15.44;100.00
37848;BME280;23688;33.130;-117.188;2023-05-21T11:59:59;99598.69;;;15.39;100.00
37848;BME280;23688;33.130;-117.188;2023-05-21T12:02:31;99619.22;;;15.59;100.00
37848;BME280;23688;33.130;-117.188;2023-05-21T12:04:57;99607.94;;;15.61;100.00
37848;BME280;23688;33.130;-117.188;2023-05-21T12:07:26;99600.13;;;15.63;100.00
37848;BME280;23688;33.130;-117.188;2023-05-21T12:09:54;99612.41;;;15.66;100.00
37848;BME280;23688;33.130;-117.188;2023-05-21T12:12:23;99600.75;;;15.53;100.00
37848;BME280;23688;33.130;-117.188;2023-05-21T12:14:53;99599.91;;;15.55;100.00
37848;BME280;23688;33.130;-117.188;2023-05-21T12:17:24;99600.03;;;15.60;100.00
37848;BME280;23688;33.130;-117.188;2023-05-21T12:19:54;99594.69;;;15.54;100.00
37848;BME280;23688;33.130;-117.188;2023-05-21T12:22:24;99602.44;;;15.51;100.00
37848;BME280;23688;33.130;-117.188;2023-05-21T12:24:52;99601.78;;;15.59;100.00
37848;BME280;23688;33.130;-117.188;2023-05-21T12:27:20;99593.88;;;15.58;100.00
37848;BME280;23688;33.130;-117.188;2023-05-21T12:29:49;99616.44;;;15.53;100.00
37848;BME280;23688;33.130;-117.188;2023-05-21T12:32:16;99599.03;;;15.55;100.00
37848;BME280;23688;33.130;-117.188;2023-05-21T12:34:50;99600.03;;;15.60;100.00
37848;BME280;23688;33.130;-117.188;2023-05-21T12:37:21;99607.28;;;15.70;100.00
37848;BME280;23688;33.130;-117.188;2023-05-21T12:39:51;99603.88;;;15.74;100.00
37848;BME280;23688;33.130;-117.188;2023-05-21T12:42:25;99589.91;;;15.74;100.00
37848;BME280;23688;33.130;-117.188;2023-05-21T12:44:53;99603.09;;;15.78;100.00
37848;BME280;23688;33.130;-117.188;2023-05-21T12:47:22;99603.94;;;15.76;100.00
37848;BME280;23688;33.130;-117.188;2023-05-21T12:49:53;99608.25;;;15.74;100.00
37848;BME280;23688;33.130;-117.188;2023-05-21T12:52:20;99608.81;;;15.62;100.00